Time;durP1;ratioP1;P1;durP2;ratioP2;P2;SDS_P1;SDS_P2;PMS_P1;PMS_P2;Temp;Humidity;BMP_temperature;BMP_pressure;BME280_temperature;BME280_humidity;BME280_pressure;Samples;Min_cycle;Max_cycle;Signal;HPM_P1;HPM_P2
2023/01/14 00:00:09;;;;;;;;;;;;;;;;;;5066584;28;19990;-69
2023/01/14 00:02:35;;;;;;;;;;;;;;;;;;5069324;28;20537;-70
2023/01/14 00:05:01;;;;;;;;;;;;;;;;;;5052002;28;20039;-68
2023/01/14 00:07:27;;;;;;;;;;;;;;;;;;5068727;28;20107;-69
2023/01/14 00:09:53;;;;;;;;;;;;;;;;;;5070274;28;19959;-69
2023/01/14 00:12:19;;;;;;;;;;;;;;;;;;5071888;28;19955;-70
2023/01/14 00:14:45;;;;;;;;;;;;;;;;;;5052670;28;19928;-70
2023/01/14 00:17:11;;;;;;;;;;;;;;;;;;5054028;28;19935;-69
2023/01/14 00:19:37;;;;;;;;;;;;;;;;;;5071344;28;19963;-69
2023/01/14 00:22:03;;;;;;;;;;;;;;;;;;5070209;28;19963;-68
2023/01/14 00:24:29;;;;;;;;;;;;;;;;;;5055157;28;19924;-68
2023/01/14 00:26:55;;;;;;;;;;;;;;;;;;5067097;28;19924;-69
2023/01/14 00:29:21;;;;;;;;;;;;;;;;;;5069258;28;20417;-69
2023/01/14 00:31:46;;;;;;;;;;;;;;;;;;5090113;28;20377;-69
2023/01/14 00:34:12;;;;;;;;;;;;;;;;;;5076459;28;19931;-69
2023/01/14 00:36:38;;;;;;;;;;;;;;;;;;5064815;28;19931;-69
2023/01/14 00:39:04;;;;;;;;;;;;;;;;;;5073447;28;19943;-70
2023/01/14 00:41:30;;;;;;;;;;;;;;;;;;5093225;28;19924;-69
2023/01/14 00:43:56;;;;;;;;;;;;;;;;;;5094343;28;19931;-69
2023/01/14 00:46:22;;;;;;;;;;;;;;;;;;5057377;28;19931;-69
2023/01/14 00:48:48;;;;;;;;;;;;;;;;;;5072529;28;19924;-69
2023/01/14 00:51:14;;;;;;;;;;;;;;;;;;5053611;28;19920;-69
2023/01/14 00:53:40;;;;;;;;;;;;;;;;;;5071790;28;19955;-68
2023/01/14 00:56:05;;;;;;;;;;;;;;;;;;5074606;28;20329;-69
2023/01/14 00:58:31;;;;;;;;;;;;;;;;;;5074399;28;19981;-69
2023/01/14 01:00:57;;;;;;;;;;;;;;;;;;5074775;28;19924;-69
2023/01/14 01:03:23;;;;;;;;;;;;;;;;;;5073788;28;20392;-69
2023/01/14 01:05:49;;;;;;;;;;;;;;;;;;5069524;28;19936;-69
2023/01/14 01:08:15;;;;;;;;;;;;;;;;;;5094086;28;19993;-70
2023/01/14 01:10:41;;;;;;;;;;;;;;;;;;5073873;28;19927;-69
2023/01/14 01:13:07;;;;;;;;;;;;;;;;;;5058565;28;20459;-69
2023/01/14 01:15:33;;;;;;;;;;;;;;;;;;5092510;28;19928;-69
2023/01/14 01:17:59;;;;;;;;;;;;;;;;;;5056863;28;20359;-69
2023/01/14 01:20:25;;;;;;;;;;;;;;;;;;5074230;28;19928;-69
2023/01/14 01:22:51;;;;;;;;;;;;;;;;;;5093061;28;19969;-69
2023/01/14 01:25:16;;;;;;;;;;;;;;;;;;5074388;28;19924;-69
2023/01/14 01:27:42;;;;;;;;;;;;;;;;;;5057898;28;19970;-69
2023/01/14 01:30:08;;;;;;;;;;;;;;;;;;5055670;28;20345;-69
2023/01/14 01:32:34;;;;;;;;;;;;;;;;;;5075436;28;19935;-69
2023/01/14 01:35:00;;;;;;;;;;;;;;;;;;5073187;28;19960;-69
2023/01/14 01:37:26;;;;;;;;;;;;;;;;;;5062113;28;20358;-69
2023/01/14 01:39:52;;;;;;;;;;;;;;;;;;5083738;28;19924;-69
2023/01/14 01:42:19;;;;;;;;;;;;;;;;;;5057908;28;19931;-69
2023/01/14 01:44:45;;;;;;;;;;;;;;;;;;5073874;28;20377;-69
2023/01/14 01:47:11;;;;;;;;;;;;;;;;;;5075806;28;19931;-70
2023/01/14 01:49:37;;;;;;;;;;;;;;;;;;5091658;28;20438;-68
2023/01/14 01:52:03;;;;;;;;;;;;;;;;;;5073339;28;19920;-69
2023/01/14 01:54:29;;;;;;;;;;;;;;;;;;5074972;28;19951;-69
2023/01/14 01:56:55;;;;;;;;;;;;;;;;;;5049524;28;20092;-69
2023/01/14 01:59:21;;;;;;;;;;;;;;;;;;5089285;28;19942;-69
2023/01/14 02:01:47;;;;;;;;;;;;;;;;;;5084184;28;19927;-70
2023/01/14 02:04:12;;;;;;;;;;;;;;;;;;5092664;28;20262;-69
2023/01/14 02:06:38;;;;;;;;;;;;;;;;;;5088772;28;19924;-69
2023/01/14 02:09:04;;;;;;;;;;;;;;;;;;5074730;28;19931;-69
2023/01/14 02:11:30;;;;;;;;;;;;;;;;;;5073141;28;20374;-68
2023/01/14 02:13:56;;;;;;;;;;;;;;;;;;5063311;28;19920;-69
2023/01/14 02:16:22;;;;;;;;;;;;;;;;;;5073947;28;20297;-69
2023/01/14 02:18:48;;;;;;;;;;;;;;;;;;5090857;28;19924;-69
2023/01/14 02:21:14;;;;;;;;;;;;;;;;;;5074316;28;19993;-69
2023/01/14 02:23:40;;;;;;;;;;;;;;;;;;5073497;28;19960;-69
2023/01/14 02:26:06;;;;;;;;;;;;;;;;;;5062742;28;19944;-69
2023/01/14 02:28:32;;;;;;;;;;;;;;;;;;5068758;28;19925;-69
2023/01/14 02:30:57;;;;;;;;;;;;;;;;;;5065277;28;19924;-68
2023/01/14 02:33:23;;;;;;;;;;;;;;;;;;5074232;28;20346;-69
2023/01/14 02:35:49;;;;;;;;;;;;;;;;;;5072528;28;19923;-69
2023/01/14 02:38:15;;;;;;;;;;;;;;;;;;5084119;28;20015;-68
2023/01/14 02:40:41;;;;;;;;;;;;;;;;;;5065501;28;19925;-68
2023/01/14 02:45:52;;;;;;;;;;;;;;;;;;5072223;28;19927;-69
2023/01/14 02:48:18;;;;;;;;;;;;;;;;;;5060288;28;19920;-69
2023/01/14 02:50:43;;;;;;;;;;;;;;;;;;5055792;28;19920;-69
2023/01/14 02:53:09;;;;;;;;;;;;;;;;;;5088221;28;19928;-70
2023/01/14 02:55:35;;;;;;;;;;;;;;;;;;5091024;28;19963;-70
2023/01/14 02:58:01;;;;;;;;;;;;;;;;;;5054593;28;20432;-68
2023/01/14 03:00:27;;;;;;;;;;;;;;;;;;5082720;28;19930;-69
2023/01/14 03:02:53;;;;;;;;;;;;;;;;;;5071294;28;19920;-70
2023/01/14 03:05:19;;;;;;;;;;;;;;;;;;5072379;28;19935;-69
2023/01/14 03:07:45;;;;;;;;;;;;;;;;;;5053871;28;19924;-69
2023/01/14 03:10:11;;;;;;;;;;;;;;;;;;5086711;28;19965;-69
2023/01/14 03:12:37;;;;;;;;;;;;;;;;;;5089631;28;19924;-69
2023/01/14 03:15:03;;;;;;;;;;;;;;;;;;5072429;28;20364;-69
2023/01/14 03:17:29;;;;;;;;;;;;;;;;;;5072294;28;19946;-69
2023/01/14 03:19:55;;;;;;;;;;;;;;;;;;5089306;28;19928;-69
2023/01/14 03:22:21;;;;;;;;;;;;;;;;;;5073603;28;19938;-69
2023/01/14 03:24:47;;;;;;;;;;;;;;;;;;5059418;28;19928;-69
2023/01/14 03:27:13;;;;;;;;;;;;;;;;;;5059790;28;19920;-69
2023/01/14 03:29:38;;;;;;;;;;;;;;;;;;5069003;28;19920;-69
2023/01/14 03:32:04;;;;;;;;;;;;;;;;;;5069241;28;20374;-69
2023/01/14 03:34:30;;;;;;;;;;;;;;;;;;5073427;28;19927;-69
2023/01/14 03:36:56;;;;;;;;;;;;;;;;;;5071202;28;19940;-69
2023/01/14 03:39:22;;;;;;;;;;;;;;;;;;5055662;28;20015;-69
2023/01/14 03:44:33;;;;;;;;;;;;;;;;;;5071415;28;19920;-69
2023/01/14 03:46:58;;;;;;;;;;;;;;;;;;5072858;28;20289;-69
2023/01/14 03:49:24;;;;;;;;;;;;;;;;;;5072891;28;19928;-69
2023/01/14 03:51:50;;;;;;;;;;;;;;;;;;5089370;28;19924;-68
2023/01/14 03:54:18;;;;;;;;;;;;;;;;;;5085605;28;20423;-68
2023/01/14 03:56:44;;;;;;;;;;;;;;;;;;5066594;28;19931;-69
2023/01/14 03:59:09;;;;;;;;;;;;;;;;;;5071382;28;19921;-69
2023/01/14 04:01:35;;;;;;;;;;;;;;;;;;5072363;28;19982;-69
2023/01/14 04:04:01;;;;;;;;;;;;;;;;;;5091363;28;19924;-69
2023/01/14 04:06:27;;;;;;;;;;;;;;;;;;5075581;28;19928;-69
2023/01/14 04:08:53;;;;;;;;;;;;;;;;;;5076860;28;20384;-68
2023/01/14 04:11:19;;;;;;;;;;;;;;;;;;5074487;28;20006;-68
2023/01/14 04:16:30;;;;;;;;;;;;;;;;;;5095106;28;20015;-70
2023/01/14 04:18:56;;;;;;;;;;;;;;;;;;5059864;28;19966;-68
2023/01/14 04:21:22;;;;;;;;;;;;;;;;;;5075382;28;19979;-68
2023/01/14 04:23:47;;;;;;;;;;;;;;;;;;5095274;28;20002;-68
2023/01/14 04:26:13;;;;;;;;;;;;;;;;;;5073223;28;19920;-69
2023/01/14 04:28:39;;;;;;;;;;;;;;;;;;5073811;28;20003;-69
2023/01/14 04:31:05;;;;;;;;;;;;;;;;;;5074745;28;19973;-68
2023/01/14 04:33:31;;;;;;;;;;;;;;;;;;5072219;28;19973;-68
2023/01/14 04:35:57;;;;;;;;;;;;;;;;;;5092351;28;19920;-69
2023/01/14 04:38:23;;;;;;;;;;;;;;;;;;5094997;28;19973;-70
2023/01/14 04:40:49;;;;;;;;;;;;;;;;;;5064144;28;19928;-69
2023/01/14 04:43:15;;;;;;;;;;;;;;;;;;5072450;28;20269;-68
2023/01/14 04:45:41;;;;;;;;;;;;;;;;;;5071940;28;20046;-69
2023/01/14 04:48:07;;;;;;;;;;;;;;;;;;5087775;28;19973;-69
2023/01/14 04:50:41;;;;;;;;;;;;;;;;;;5071222;28;19938;-69
2023/01/14 04:53:07;;;;;;;;;;;;;;;;;;5073464;28;20590;-69
2023/01/14 04:55:32;;;;;;;;;;;;;;;;;;5072166;28;19976;-69
2023/01/14 04:57:58;;;;;;;;;;;;;;;;;;5073633;28;19924;-68
2023/01/14 05:00:24;;;;;;;;;;;;;;;;;;5070654;28;19924;-68
2023/01/14 05:02:50;;;;;;;;;;;;;;;;;;5088850;28;19935;-68
2023/01/14 05:05:16;;;;;;;;;;;;;;;;;;5082780;28;19928;-68
2023/01/14 05:07:42;;;;;;;;;;;;;;;;;;5089414;28;19928;-68
2023/01/14 05:10:08;;;;;;;;;;;;;;;;;;5072807;28;19947;-69
2023/01/14 05:12:34;;;;;;;;;;;;;;;;;;5086135;28;20741;-69
2023/01/14 05:15:00;;;;;;;;;;;;;;;;;;5052106;28;19924;-68
2023/01/14 05:17:25;;;;;;;;;;;;;;;;;;5070781;28;19981;-69
2023/01/14 05:19:51;;;;;;;;;;;;;;;;;;5073547;28;19924;-68
2023/01/14 05:22:17;;;;;;;;;;;;;;;;;;5092829;28;19920;-69
2023/01/14 05:24:43;;;;;;;;;;;;;;;;;;5072633;28;20389;-69
2023/01/14 05:27:09;;;;;;;;;;;;;;;;;;5074110;28;19920;-69
2023/01/14 05:29:36;;;;;;;;;;;;;;;;;;5073917;28;19924;-69
2023/01/14 05:32:02;;;;;;;;;;;;;;;;;;5091495;28;20632;-68
2023/01/14 05:34:30;;;;;;;;;;;;;;;;;;5073683;28;19920;-68
2023/01/14 05:36:56;;;;;;;;;;;;;;;;;;5092635;28;20008;-68
2023/01/14 05:39:22;;;;;;;;;;;;;;;;;;5067309;28;20400;-69
2023/01/14 05:47:31;;;;;;;;;;;;;;;;;;5070371;28;20265;-69
2023/01/14 05:49:57;;;;;;;;;;;;;;;;;;5092415;28;19924;-69
2023/01/14 05:52:23;;;;;;;;;;;;;;;;;;5074137;28;19946;-68
2023/01/14 05:54:49;;;;;;;;;;;;;;;;;;5051876;28;19924;-68
2023/01/14 05:57:15;;;;;;;;;;;;;;;;;;5093175;28;20290;-68
2023/01/14 05:59:41;;;;;;;;;;;;;;;;;;5073976;28;19928;-68
2023/01/14 06:07:36;;;;;;;;;;;;;;;;;;5069149;28;19920;-68
2023/01/14 06:10:02;;;;;;;;;;;;;;;;;;5057366;28;19931;-69
2023/01/14 06:12:57;;;;;;;;;;;;;;;;;;5077992;28;19960;-69
2023/01/14 06:15:20;;;;;;;;;;;;;;;;;;5069134;28;19924;-69
2023/01/14 06:17:56;;;;;;;;;;;;;;;;;;5063703;22;19935;-68
2023/01/14 06:20:22;;;;;;;;;;;;;;;;;;5033841;28;19935;-68
2023/01/14 06:22:48;;;;;;;;;;;;;;;;;;5051968;28;19921;-69
2023/01/14 06:25:14;;;;;;;;;;;;;;;;;;5024701;28;20452;-69
2023/01/14 06:27:40;;;;;;;;;;;;;;;;;;5047308;28;19956;-69
2023/01/14 06:30:05;;;;;;;;;;;;;;;;;;5035067;28;20320;-69
2023/01/14 06:32:31;;;;;;;;;;;;;;;;;;5030964;28;19924;-69
2023/01/14 06:34:57;;;;;;;;;;;;;;;;;;5031867;28;19928;-69
2023/01/14 06:37:23;;;;;;;;;;;;;;;;;;5038434;28;19921;-69
2023/01/14 06:39:49;;;;;;;;;;;;;;;;;;5059848;28;20323;-69
2023/01/14 06:42:15;;;;;;;;;;;;;;;;;;5059927;28;19951;-70
2023/01/14 06:44:41;;;;;;;;;;;;;;;;;;5032943;28;19927;-70
2023/01/14 06:47:07;;;;;;;;;;;;;;;;;;5035065;28;20381;-69
2023/01/14 06:49:33;;;;;;;;;;;;;;;;;;5018238;28;19924;-69
2023/01/14 06:51:59;;;;;;;;;;;;;;;;;;5024551;28;19928;-70
2023/01/14 06:54:25;;;;;;;;;;;;;;;;;;5054150;28;19974;-69
2023/01/14 06:56:51;;;;;;;;;;;;;;;;;;5031641;28;19929;-70
2023/01/14 06:59:16;;;;;;;;;;;;;;;;;;5044311;28;20625;-69
2023/01/14 07:01:42;;;;;;;;;;;;;;;;;;5022805;28;19925;-70
2023/01/14 07:04:08;;;;;;;;;;;;;;;;;;5034226;28;19935;-70
2023/01/14 07:06:34;;;;;;;;;;;;;;;;;;5016405;28;19932;-70
2023/01/14 07:09:00;;;;;;;;;;;;;;;;;;5024452;28;19925;-70
2023/01/14 07:11:26;;;;;;;;;;;;;;;;;;5033107;28;19967;-70
2023/01/14 07:13:52;;;;;;;;;;;;;;;;;;5032301;28;20334;-69
2023/01/14 07:16:18;;;;;;;;;;;;;;;;;;5050159;28;19967;-69
2023/01/14 07:18:44;;;;;;;;;;;;;;;;;;5044164;28;19929;-70
2023/01/14 07:21:10;;;;;;;;;;;;;;;;;;5033819;28;20012;-69
2023/01/14 07:23:35;;;;;;;;;;;;;;;;;;5033388;28;19924;-69
2023/01/14 07:26:01;;;;;;;;;;;;;;;;;;5032670;28;20587;-69
2023/01/14 07:28:28;;;;;;;;;;;;;;;;;;5030839;28;19971;-69
2023/01/14 07:30:54;;;;;;;;;;;;;;;;;;5051626;28;20046;-69
2023/01/14 07:33:21;;;;;;;;;;;;;;;;;;5043022;28;19982;-69
2023/01/14 07:35:51;;;;;;;;;;;;;;;;;;5010499;28;19925;-71
2023/01/14 07:38:17;;;;;;;;;;;;;;;;;;5041454;28;19948;-70
2023/01/14 07:40:42;;;;;;;;;;;;;;;;;;5027532;28;20310;-69
2023/01/14 07:43:08;;;;;;;;;;;;;;;;;;5033185;28;19921;-70
2023/01/14 07:45:34;;;;;;;;;;;;;;;;;;5044972;28;19932;-70
2023/01/14 07:48:00;;;;;;;;;;;;;;;;;;5028312;28;19931;-70
2023/01/14 07:50:26;;;;;;;;;;;;;;;;;;5029032;28;19976;-70
2023/01/14 07:52:52;;;;;;;;;;;;;;;;;;5009248;28;19931;-70
2023/01/14 07:55:18;;;;;;;;;;;;;;;;;;5048723;28;20327;-70
2023/01/14 07:57:44;;;;;;;;;;;;;;;;;;5032449;28;20023;-70
2023/01/14 08:00:10;;;;;;;;;;;;;;;;;;5032010;28;19920;-70
2023/01/14 08:02:36;;;;;;;;;;;;;;;;;;5031635;28;20017;-70
2023/01/14 08:05:02;;;;;;;;;;;;;;;;;;5050441;28;20026;-70
2023/01/14 08:07:28;;;;;;;;;;;;;;;;;;5042521;28;20293;-70
2023/01/14 08:09:54;;;;;;;;;;;;;;;;;;5015755;28;19928;-70
2023/01/14 08:12:20;;;;;;;;;;;;;;;;;;5045703;28;19921;-70
2023/01/14 08:14:46;;;;;;;;;;;;;;;;;;5031345;28;19939;-70
2023/01/14 08:17:12;;;;;;;;;;;;;;;;;;5031187;28;20019;-70
2023/01/14 08:19:37;;;;;;;;;;;;;;;;;;5032575;28;19947;-70
2023/01/14 08:22:03;;;;;;;;;;;;;;;;;;5030309;28;19929;-70
2023/01/14 08:24:29;;;;;;;;;;;;;;;;;;5032752;28;19990;-70
2023/01/14 08:26:55;;;;;;;;;;;;;;;;;;5026225;28;19935;-70
2023/01/14 08:29:21;;;;;;;;;;;;;;;;;;5032144;28;20374;-70
2023/01/14 08:31:47;;;;;;;;;;;;;;;;;;5013586;28;19928;-70
2023/01/14 08:34:13;;;;;;;;;;;;;;;;;;5029554;28;20302;-70
2023/01/14 08:36:40;;;;;;;;;;;;;;;;;;5026030;28;19935;-70
2023/01/14 08:39:05;;;;;;;;;;;;;;;;;;5023521;28;19931;-69
2023/01/14 08:41:31;;;;;;;;;;;;;;;;;;5026185;28;19929;-70
2023/01/14 08:43:57;;;;;;;;;;;;;;;;;;5040988;28;19933;-70
2023/01/14 08:46:23;;;;;;;;;;;;;;;;;;5024742;28;20013;-69
2023/01/14 08:48:49;;;;;;;;;;;;;;;;;;5028029;28;19927;-69
2023/01/14 08:51:15;;;;;;;;;;;;;;;;;;5031124;28;19952;-69
2023/01/14 08:53:41;;;;;;;;;;;;;;;;;;5052004;28;20274;-69
2023/01/14 08:56:07;;;;;;;;;;;;;;;;;;5034595;28;19920;-69
2023/01/14 08:58:35;;;;;;;;;;;;;;;;;;5050003;28;19929;-69
2023/01/14 09:01:01;;;;;;;;;;;;;;;;;;5031046;28;19939;-69
2023/01/14 09:03:29;;;;;;;;;;;;;;;;;;5033013;28;20570;-69
2023/01/14 09:05:56;;;;;;;;;;;;;;;;;;5035990;28;20279;-69
2023/01/14 09:19:20;;;;;;;;;;;;;;;;;;5026778;28;19929;-68
2023/01/14 09:21:46;;;;;;;;;;;;;;;;;;5038251;28;20372;-70
2023/01/14 09:24:13;;;;;;;;;;;;;;;;;;5040898;28;19921;-69
2023/01/14 09:26:39;;;;;;;;;;;;;;;;;;5035061;28;19920;-69
2023/01/14 09:29:05;;;;;;;;;;;;;;;;;;5032945;28;19940;-68
2023/01/14 09:31:31;;;;;;;;;;;;;;;;;;5030108;28;19936;-69
2023/01/14 09:33:57;;;;;;;;;;;;;;;;;;5023620;28;19924;-69
2023/01/14 09:36:23;;;;;;;;;;;;;;;;;;5028388;28;19925;-68
2023/01/14 09:38:49;;;;;;;;;;;;;;;;;;5047386;28;20019;-68
2023/01/14 09:41:15;;;;;;;;;;;;;;;;;;5054424;28;19924;-68
2023/01/14 09:43:41;;;;;;;;;;;;;;;;;;5019319;28;20012;-67
2023/01/14 09:46:07;;;;;;;;;;;;;;;;;;5050756;28;20435;-67
2023/01/14 09:48:32;;;;;;;;;;;;;;;;;;5039320;28;19922;-68
2023/01/14 09:50:58;;;;;;;;;;;;;;;;;;5033910;28;19970;-68
2023/01/14 09:53:24;;;;;;;;;;;;;;;;;;5052912;28;19932;-67
2023/01/14 09:55:50;;;;;;;;;;;;;;;;;;5051121;28;19921;-68
2023/01/14 09:58:16;;;;;;;;;;;;;;;;;;5046588;28;19929;-68
2023/01/14 10:00:42;;;;;;;;;;;;;;;;;;5049917;28;19924;-67
2023/01/14 10:03:08;;;;;;;;;;;;;;;;;;5050295;28;20440;-67
2023/01/14 10:05:34;;;;;;;;;;;;;;;;;;5038962;28;19925;-67
2023/01/14 10:08:00;;;;;;;;;;;;;;;;;;5030452;28;20012;-67
2023/01/14 10:10:26;;;;;;;;;;;;;;;;;;5028259;28;20030;-68
2023/01/14 10:12:52;;;;;;;;;;;;;;;;;;5042319;28;20088;-66
2023/01/14 10:15:18;;;;;;;;;;;;;;;;;;5048243;28;20350;-67
2023/01/14 10:17:44;;;;;;;;;;;;;;;;;;5047122;28;19924;-66
2023/01/14 10:20:10;;;;;;;;;;;;;;;;;;5042415;28;19924;-66
2023/01/14 10:22:36;;;;;;;;;;;;;;;;;;5050312;28;19920;-67
2023/01/14 10:25:04;;;;;;;;;;;;;;;;;;5047005;28;19920;-66
2023/01/14 10:27:31;;;;;;;;;;;;;;;;;;5048783;28;19971;-66
2023/01/14 10:29:57;;;;;;;;;;;;;;;;;;5048850;28;20370;-66
2023/01/14 10:32:23;;;;;;;;;;;;;;;;;;5053355;28;19920;-66
2023/01/14 10:34:48;;;;;;;;;;;;;;;;;;5053401;28;20042;-66
2023/01/14 10:37:15;;;;;;;;;;;;;;;;;;5030098;28;20011;-66
2023/01/14 10:39:41;;;;;;;;;;;;;;;;;;5047465;28;19925;-67
2023/01/14 10:42:10;;;;;;;;;;;;;;;;;;5026780;28;20293;-65
2023/01/14 10:44:38;;;;;;;;;;;;;;;;;;5048637;28;19925;-66
2023/01/14 10:47:03;;;;;;;;;;;;;;;;;;5047298;28;19952;-67
2023/01/14 10:49:29;;;;;;;;;;;;;;;;;;5049102;28;20461;-67
2023/01/14 10:51:57;;;;;;;;;;;;;;;;;;5052407;28;19978;-66
2023/01/14 10:54:23;;;;;;;;;;;;;;;;;;5046000;28;20287;-66
2023/01/14 10:56:49;;;;;;;;;;;;;;;;;;5052833;28;19932;-66
2023/01/14 10:59:14;;;;;;;;;;;;;;;;;;5018659;28;20023;-66
2023/01/14 11:01:42;;;;;;;;;;;;;;;;;;5029860;28;21210;-67
2023/01/14 11:04:08;;;;;;;;;;;;;;;;;;5039986;28;19920;-66
2023/01/14 11:06:34;;;;;;;;;;;;;;;;;;5048911;28;19936;-66
2023/01/14 11:09:00;;;;;;;;;;;;;;;;;;5042960;28;20335;-66
2023/01/14 11:11:26;;;;;;;;;;;;;;;;;;5048738;28;19932;-66
2023/01/14 11:13:53;;;;;;;;;;;;;;;;;;5025121;28;19928;-67
2023/01/14 11:16:19;;;;;;;;;;;;;;;;;;5040768;28;19929;-67
2023/01/14 11:18:45;;;;;;;;;;;;;;;;;;5033593;28;19971;-67
2023/01/14 11:21:11;;;;;;;;;;;;;;;;;;5051322;28;20286;-67
2023/01/14 11:23:36;;;;;;;;;;;;;;;;;;5041017;28;20491;-67
2023/01/14 11:26:02;;;;;;;;;;;;;;;;;;5047864;28;19932;-67
2023/01/14 11:28:28;;;;;;;;;;;;;;;;;;5041356;28;19960;-65
2023/01/14 11:30:54;;;;;;;;;;;;;;;;;;5028603;28;19925;-66
2023/01/14 11:33:20;;;;;;;;;;;;;;;;;;5042413;28;20011;-66
2023/01/14 11:35:46;;;;;;;;;;;;;;;;;;5044198;28;19935;-66
2023/01/14 11:38:12;;;;;;;;;;;;;;;;;;5046848;28;19925;-66
2023/01/14 11:43:25;;;;;;;;;;;;;;;;;;5043127;28;20007;-66
2023/01/14 11:45:50;;;;;;;;;;;;;;;;;;5026224;28;19929;-66
2023/01/14 11:48:16;;;;;;;;;;;;;;;;;;5048838;28;19931;-66
2023/01/14 11:50:42;;;;;;;;;;;;;;;;;;5042127;28;20389;-66
2023/01/14 11:53:15;;;;;;;;;;;;;;;;;;5048457;28;19924;-66
2023/01/14 11:55:40;;;;;;;;;;;;;;;;;;5046889;28;19931;-66
2023/01/14 11:58:06;;;;;;;;;;;;;;;;;;5044373;28;19925;-67
2023/01/14 12:00:32;;;;;;;;;;;;;;;;;;5047355;28;19924;-66
2023/01/14 12:02:58;;;;;;;;;;;;;;;;;;5046074;28;19966;-66
2023/01/14 12:05:25;;;;;;;;;;;;;;;;;;5029777;28;20007;-66
2023/01/14 12:07:52;;;;;;;;;;;;;;;;;;5050290;28;20616;-66
2023/01/14 12:10:18;;;;;;;;;;;;;;;;;;5051502;28;19933;-66
2023/01/14 12:18:13;;;;;;;;;;;;;;;;;;5042878;28;20430;-66
2023/01/14 12:20:39;;;;;;;;;;;;;;;;;;5032761;28;19925;-66
2023/01/14 12:23:05;;;;;;;;;;;;;;;;;;5051431;28;20144;-66
2023/01/14 12:25:31;;;;;;;;;;;;;;;;;;5029415;28;20443;-66
2023/01/14 12:27:57;;;;;;;;;;;;;;;;;;5030711;28;19954;-66
2023/01/14 12:30:23;;;;;;;;;;;;;;;;;;5035463;28;19970;-66
2023/01/14 12:32:49;;;;;;;;;;;;;;;;;;5052444;28;19931;-66
2023/01/14 12:35:15;;;;;;;;;;;;;;;;;;5048950;28;20299;-65
2023/01/14 12:37:41;;;;;;;;;;;;;;;;;;5043332;28;19925;-66
2023/01/14 12:45:44;;;;;;;;;;;;;;;;;;5050743;28;19925;-65
2023/01/14 12:48:10;;;;;;;;;;;;;;;;;;5053953;28;19974;-66
2023/01/14 12:50:36;;;;;;;;;;;;;;;;;;5027867;28;19928;-66
2023/01/14 12:53:01;;;;;;;;;;;;;;;;;;5050009;28;19928;-66
2023/01/14 12:55:27;;;;;;;;;;;;;;;;;;5042829;28;20031;-66
2023/01/14 12:57:53;;;;;;;;;;;;;;;;;;5035216;28;20024;-66
2023/01/14 13:00:19;;;;;;;;;;;;;;;;;;5053204;28;19921;-65
2023/01/14 13:02:45;;;;;;;;;;;;;;;;;;5037298;28;19985;-66
2023/01/14 13:05:11;;;;;;;;;;;;;;;;;;5067511;28;19920;-66
2023/01/14 13:07:37;;;;;;;;;;;;;;;;;;5059699;28;19966;-66
2023/01/14 13:10:03;;;;;;;;;;;;;;;;;;5054110;28;19921;-66
2023/01/14 13:12:29;;;;;;;;;;;;;;;;;;5054505;28;20293;-66
2023/01/14 13:14:55;;;;;;;;;;;;;;;;;;5037936;28;19927;-66
2023/01/14 13:17:20;;;;;;;;;;;;;;;;;;5023757;28;19924;-66
2023/01/14 13:19:47;;;;;;;;;;;;;;;;;;5054477;28;19925;-66
2023/01/14 13:22:13;;;;;;;;;;;;;;;;;;5033378;28;20369;-66
2023/01/14 13:24:39;;;;;;;;;;;;;;;;;;5050651;28;19921;-66
2023/01/14 13:27:05;;;;;;;;;;;;;;;;;;5043559;28;19928;-66
2023/01/14 13:29:31;;;;;;;;;;;;;;;;;;5047051;28;20652;-66
2023/01/14 13:31:57;;;;;;;;;;;;;;;;;;5042127;28;20386;-66
2023/01/14 13:34:23;;;;;;;;;;;;;;;;;;5043407;28;19921;-66
2023/01/14 13:36:49;;;;;;;;;;;;;;;;;;5043468;28;19956;-66
2023/01/14 13:39:14;;;;;;;;;;;;;;;;;;5046519;28;19967;-66
2023/01/14 13:41:40;;;;;;;;;;;;;;;;;;5048619;28;20414;-65
2023/01/14 13:44:06;;;;;;;;;;;;;;;;;;5036134;28;19921;-65
2023/01/14 13:46:32;;;;;;;;;;;;;;;;;;5053527;28;20485;-66
2023/01/14 13:48:58;;;;;;;;;;;;;;;;;;5046222;28;19931;-66
2023/01/14 13:51:24;;;;;;;;;;;;;;;;;;5039150;28;19925;-65
2023/01/14 13:53:50;;;;;;;;;;;;;;;;;;5051581;28;20526;-65
2023/01/14 13:56:16;;;;;;;;;;;;;;;;;;5062303;28;19964;-65
2023/01/14 13:58:42;;;;;;;;;;;;;;;;;;5054430;28;19958;-65
2023/01/14 14:01:08;;;;;;;;;;;;;;;;;;5053273;28;19955;-65
2023/01/14 14:03:34;;;;;;;;;;;;;;;;;;5053146;28;19932;-65
2023/01/14 14:06:00;;;;;;;;;;;;;;;;;;5053295;28;19921;-65
2023/01/14 14:08:26;;;;;;;;;;;;;;;;;;5045419;28;20358;-65
2023/01/14 14:10:52;;;;;;;;;;;;;;;;;;5051174;28;19928;-66
2023/01/14 14:16:03;;;;;;;;;;;;;;;;;;5053331;28;19925;-66
2023/01/14 14:18:29;;;;;;;;;;;;;;;;;;5053014;28;19925;-65
2023/01/14 14:20:55;;;;;;;;;;;;;;;;;;5035470;28;19928;-65
2023/01/14 14:23:21;;;;;;;;;;;;;;;;;;5053286;28;19932;-66
2023/01/14 14:25:47;;;;;;;;;;;;;;;;;;5053195;28;19921;-66
2023/01/14 14:28:13;;;;;;;;;;;;;;;;;;5035208;28;19927;-66
2023/01/14 14:30:39;;;;;;;;;;;;;;;;;;5034167;28;20653;-65
2023/01/14 14:33:05;;;;;;;;;;;;;;;;;;5035072;28;19931;-65
2023/01/14 14:35:31;;;;;;;;;;;;;;;;;;5052871;28;19928;-66
2023/01/14 14:37:56;;;;;;;;;;;;;;;;;;5039789;28;19925;-65
2023/01/14 14:40:22;;;;;;;;;;;;;;;;;;5049877;28;19921;-65
2023/01/14 14:42:48;;;;;;;;;;;;;;;;;;5049892;28;19925;-65
2023/01/14 14:45:14;;;;;;;;;;;;;;;;;;5052890;28;20310;-65
2023/01/14 14:47:40;;;;;;;;;;;;;;;;;;5052712;28;20023;-65
2023/01/14 14:50:06;;;;;;;;;;;;;;;;;;5048562;28;19942;-65
2023/01/14 14:52:32;;;;;;;;;;;;;;;;;;5033766;28;19925;-66
2023/01/14 14:54:58;;;;;;;;;;;;;;;;;;5052397;28;19921;-66
2023/01/14 14:57:23;;;;;;;;;;;;;;;;;;5052569;28;19928;-66
2023/01/14 14:59:51;;;;;;;;;;;;;;;;;;5044037;28;20019;-66
2023/01/14 15:02:17;;;;;;;;;;;;;;;;;;5032032;28;19921;-66
2023/01/14 15:04:43;;;;;;;;;;;;;;;;;;5014953;28;19921;-66
2023/01/14 15:07:09;;;;;;;;;;;;;;;;;;5032489;28;20429;-65
2023/01/14 15:09:34;;;;;;;;;;;;;;;;;;5050777;28;19920;-66
2023/01/14 15:12:00;;;;;;;;;;;;;;;;;;5047494;28;21370;-66
2023/01/14 15:14:26;;;;;;;;;;;;;;;;;;5045507;28;19970;-66
2023/01/14 15:16:52;;;;;;;;;;;;;;;;;;5033111;28;20015;-66
2023/01/14 15:19:18;;;;;;;;;;;;;;;;;;5048801;28;19925;-66
2023/01/14 15:21:44;;;;;;;;;;;;;;;;;;5051465;28;19921;-66
2023/01/14 15:24:10;;;;;;;;;;;;;;;;;;5049360;28;19921;-66
2023/01/14 15:26:36;;;;;;;;;;;;;;;;;;5052012;28;19936;-66
2023/01/14 15:29:02;;;;;;;;;;;;;;;;;;5051493;28;19928;-66
2023/01/14 15:31:28;;;;;;;;;;;;;;;;;;5033477;28;19921;-66
2023/01/14 15:33:54;;;;;;;;;;;;;;;;;;5030187;28;20281;-66
2023/01/14 15:36:20;;;;;;;;;;;;;;;;;;5052158;28;19924;-66
2023/01/14 15:38:45;;;;;;;;;;;;;;;;;;5052048;28;20074;-66
2023/01/14 15:41:11;;;;;;;;;;;;;;;;;;5050928;28;19921;-66
2023/01/14 15:43:40;;;;;;;;;;;;;;;;;;5052100;28;20274;-66
2023/01/14 15:46:07;;;;;;;;;;;;;;;;;;5050734;28;19935;-66
2023/01/14 15:48:34;;;;;;;;;;;;;;;;;;5044920;28;19929;-66
2023/01/14 15:51:00;;;;;;;;;;;;;;;;;;5047070;28;20007;-66
2023/01/14 15:53:27;;;;;;;;;;;;;;;;;;5050154;28;20007;-66
2023/01/14 15:55:53;;;;;;;;;;;;;;;;;;5041272;28;19924;-66
2023/01/14 15:58:19;;;;;;;;;;;;;;;;;;5024267;28;20359;-66
2023/01/14 16:00:45;;;;;;;;;;;;;;;;;;5032389;28;19966;-66
2023/01/14 16:03:10;;;;;;;;;;;;;;;;;;5058195;28;19921;-66
2023/01/14 16:05:38;;;;;;;;;;;;;;;;;;5046883;28;20024;-66
2023/01/14 16:08:03;;;;;;;;;;;;;;;;;;5051923;28;20040;-65
2023/01/14 16:10:29;;;;;;;;;;;;;;;;;;5051423;28;20347;-65
2023/01/14 16:12:55;;;;;;;;;;;;;;;;;;5038916;28;19925;-66
2023/01/14 16:15:21;;;;;;;;;;;;;;;;;;5052422;28;19920;-66
2023/01/14 16:17:47;;;;;;;;;;;;;;;;;;5053039;28;19999;-65
2023/01/14 16:20:13;;;;;;;;;;;;;;;;;;5057963;28;20673;-65
2023/01/14 16:22:39;;;;;;;;;;;;;;;;;;5058158;28;20004;-65
2023/01/14 16:25:05;;;;;;;;;;;;;;;;;;5049866;28;19924;-66
2023/01/14 16:27:33;;;;;;;;;;;;;;;;;;5057387;28;19927;-66
2023/01/14 16:29:59;;;;;;;;;;;;;;;;;;5054401;28;19931;-66
2023/01/14 16:32:24;;;;;;;;;;;;;;;;;;5058084;28;19920;-66
2023/01/14 16:34:50;;;;;;;;;;;;;;;;;;5055483;28;19931;-66
2023/01/14 16:37:16;;;;;;;;;;;;;;;;;;5052758;28;19929;-65
2023/01/14 16:39:42;;;;;;;;;;;;;;;;;;5043497;28;19971;-66
2023/01/14 16:42:08;;;;;;;;;;;;;;;;;;5046961;28;20267;-66
2023/01/14 16:44:34;;;;;;;;;;;;;;;;;;5050927;28;19952;-66
2023/01/14 16:47:00;;;;;;;;;;;;;;;;;;5048290;28;19929;-66
2023/01/14 16:49:26;;;;;;;;;;;;;;;;;;5044408;28;20534;-66
2023/01/14 16:51:52;;;;;;;;;;;;;;;;;;5056207;28;19928;-66
2023/01/14 16:54:18;;;;;;;;;;;;;;;;;;5052206;28;19982;-66
2023/01/14 16:56:43;;;;;;;;;;;;;;;;;;5053173;28;19921;-66
2023/01/14 16:59:10;;;;;;;;;;;;;;;;;;5058033;28;19925;-66
2023/01/14 17:01:37;;;;;;;;;;;;;;;;;;5050471;28;19925;-66
2023/01/14 17:04:03;;;;;;;;;;;;;;;;;;5054282;28;19968;-64
2023/01/14 17:06:29;;;;;;;;;;;;;;;;;;5055800;28;20383;-64
2023/01/14 17:08:55;;;;;;;;;;;;;;;;;;5057113;28;19921;-64
2023/01/14 17:14:05;;;;;;;;;;;;;;;;;;5054030;28;19921;-64
2023/01/14 17:16:31;;;;;;;;;;;;;;;;;;5054330;28;19932;-65
2023/01/14 17:18:57;;;;;;;;;;;;;;;;;;5039886;28;19929;-65
2023/01/14 17:21:23;;;;;;;;;;;;;;;;;;5043409;28;19928;-65
2023/01/14 17:23:49;;;;;;;;;;;;;;;;;;5041488;28;20372;-65
2023/01/14 17:26:15;;;;;;;;;;;;;;;;;;5052004;28;19975;-65